• Join FlightAware (Why Join?)
  • Login
  • US Flag 
02:26PM EDT


 

Airport Tracker/Info


-or-


 

Live Flight TrackerFlight Track Log ✈ CRQ675 ✈ 28-Jun-2013 ✈ CYTS - CYMO

Flight Track Log - Related Links

Times and Time Zones

All times are in EDT time to prevent confusion due to time zone crossing. See the CRQ675 flight status page for this flight to view local times or setup timezone preferences in your user account.

Time Position Orientation Groundspeed Altitude Reporting Facility
EDT Latitude Longitude Course Direction KTS MPH feet Rate Location/Type
12:35PM 48.6274 -81.3613 10° North  Level Estimated
12:36PM 48.6851 -81.3458 10° North  Level Estimated
12:37PM 48.7428 -81.3303 10° North  Level Estimated
12:38PM 48.8005 -81.3148 10° North  Level Estimated
12:39PM 48.8582 -81.2992 10° North  Level Estimated
12:40PM 48.9159 -81.2836 10° North  Level Estimated
12:41PM 48.9735 -81.2680 10° North  Level Estimated
12:42PM 49.0312 -81.2523 10° North  Level Estimated
12:43PM 49.0889 -81.2366 10° North  Level Estimated
12:44PM 49.1466 -81.2209 10° North  Level Estimated
12:45PM 49.2042 -81.2051 10° North  Level Estimated
12:46PM 49.2619 -81.1893 10° North  Level Estimated
12:47PM 49.3196 -81.1735 10° North  Level Estimated
12:48PM 49.3772 -81.1576 10° North  Level Estimated
12:49PM 49.4349 -81.1417 10° North  Level Estimated
12:50PM 49.4926 -81.1257 10° North  Level Estimated
12:51PM 49.5502 -81.1097 10° North  Level Estimated
12:52PM 49.6079 -81.0937 10° North  Level Estimated
12:53PM 49.6655 -81.0776 10° North  Level Estimated
12:54PM 49.7232 -81.0615 10° North  Level Estimated
12:55PM 49.7808 -81.0453 10° North  Level Estimated
12:56PM 49.8385 -81.0292 10° North  Level Estimated
12:57PM 49.8961 -81.0129 10° North  Level Estimated
12:58PM 49.9538 -80.9967 10° North  Level Estimated
12:59PM 50.0114 -80.9803 10° North  Level Estimated
01:00PM 50.0691 -80.9640 10° North  Level Estimated
01:01PM 50.1267 -80.9476 10° North  Level Estimated
01:02PM 50.1843 -80.9312 10° North  Level Estimated
01:03PM 50.2420 -80.9147 10° North  Level Estimated
01:04PM 50.2996 -80.8982 10° North  Level Estimated
01:05PM 50.3572 -80.8817 10° North  Level Estimated
01:06PM 50.4148 -80.8651 10° North  Level Estimated
01:07PM 50.4725 -80.8485 10° North  Level Estimated
01:08PM 50.5301 -80.8318 10° North  Level Estimated
01:09PM 50.5877 -80.8151 10° North  Level Estimated
01:10PM 50.6453 -80.7984 10° North  Level Estimated
01:11PM 50.7029 -80.7816 10° North  Level Estimated
01:12PM 50.7606 -80.7648 10° North  Level Estimated
01:13PM 50.8182 -80.7479 10° North  Level Estimated
01:14PM 50.8758 -80.7310 10° North  Level Estimated
01:15PM 50.9334 -80.7140 11° North  Level Estimated
01:16PM 50.9910 -80.6970 11° North  Level Estimated
01:17PM 51.0486 -80.6800 11° North  Level Estimated
01:18PM 51.1062 -80.6629 11° North  Level Estimated
01:19PM 51.1638 -80.6458 11° North  Level Estimated
01:20PM 51.2214 -80.6286 11° North  Level Estimated
01:21PM 51.2789 -80.6114 11° North  Level Estimated
01:22PM 51.2911 -80.6078 11° North  Level Estimated
01:23PM 51.2911 -80.6078 51° Northeast  Level Estimated
01:24PM 51.2911 -80.6078 51° Northeast  Level Estimated
01:25PM 51.2911 -80.6078 51° Northeast  Level Estimated
01:26PM 51.2911 -80.6078 51° Northeast  Level Estimated
01:27PM 51.2911 -80.6078 51° Northeast  Level Estimated
01:28PM 51.2911 -80.6078 51° Northeast  Level Estimated
01:29PM 51.2911 -80.6078 51° Northeast  Level Estimated
01:30PM 51.2911 -80.6078 51° Northeast  Level Estimated
01:31PM 51.2911 -80.6078 51° Northeast  Level Estimated
01:32PM 51.2911 -80.6078 51° Northeast  Level Estimated
01:33PM 51.2911 -80.6078 51° Northeast  Level Estimated
01:34PM 51.2911 -80.6078 51° Northeast  Level Estimated
01:35PM 51.2911 -80.6078 51° Northeast  Level Estimated
01:36PM 51.2911 -80.6078 51° Northeast  Level Estimated
01:37PM 51.2911 -80.6078 51° Northeast  Level Estimated